CDU weather

Camden Airport
New South Wales, Australia

Public forecast

Using degrees Celsius for public forecast. Weather courtesy of forecast.io.

METAR (pilot weather report)

Closest report is Sydney Kingsford Smith International Airport, 25.0 nm (46.4 km) ENE. Retrieved 2019/03/22 00:00 UTC (9 minutes ago):

YSSY 220000Z 17005KT 9999 FEW018 BKN040 BKN260 24/20 Q1017 NOSIG

TAF (pilot weather forecast)

Forecast is more than 12 hours old.

Closest forecast is Sydney Kingsford Smith International Airport, 25.0 nm (46.4 km) ENE. Retrieved 2019/03/21 00:00 UTC (1 day ago):

TAF YSSY 212318Z 2200/2306 15010KT 9999 -SHRA SCT030 FM221200 28008KT 9999 SCT020 FM230000 04010KT 9999 FEW030 FM230300 04015KT 9999 FEW040